createdAt,value
2023-04-07T00:01:27.562Z,8.56
2023-04-07T00:03:57.238Z,8.04
2023-04-07T00:06:25.489Z,8.56
2023-04-07T00:08:53.531Z,8.31
2023-04-07T00:11:21.639Z,8.66
2023-04-07T00:13:49.689Z,8.54
2023-04-07T00:16:17.733Z,8.60
2023-04-07T00:18:45.822Z,8.18
2023-04-07T00:21:15.182Z,8.35
2023-04-07T00:23:43.683Z,8.95
2023-04-07T00:26:13.953Z,8.95
2023-04-07T00:28:45.592Z,8.95
2023-04-07T00:31:13.704Z,9.18
2023-04-07T00:33:42.144Z,8.15
2023-04-07T00:36:10.198Z,8.10
2023-04-07T00:38:40.357Z,8.93
2023-04-07T00:41:08.385Z,8.90
2023-04-07T00:43:36.439Z,8.83
2023-04-07T00:46:04.544Z,7.80
2023-04-07T00:48:33.740Z,7.98
2023-04-07T00:51:01.880Z,7.47
2023-04-07T00:53:30.270Z,7.94
2023-04-07T00:55:59.989Z,8.03
2023-04-07T00:58:28.118Z,8.07
2023-04-07T01:01:00.253Z,7.78
2023-04-07T01:03:31.646Z,7.94
2023-04-07T01:06:01.995Z,7.65
2023-04-07T01:08:39.422Z,7.82
2023-04-07T01:11:11.823Z,8.11
2023-04-07T01:13:44.308Z,8.39
2023-04-07T01:16:28.949Z,8.68
2023-04-07T01:18:59.236Z,8.54
2023-04-07T01:21:28.737Z,8.53
2023-04-07T01:24:04.728Z,8.67
2023-04-07T01:26:34.772Z,8.67
2023-04-07T01:29:14.789Z,8.14
2023-04-07T01:31:47.968Z,7.52
2023-04-07T01:34:16.571Z,8.36
2023-04-07T01:36:45.008Z,8.16
2023-04-07T01:39:13.229Z,7.40
2023-04-07T01:41:42.684Z,8.31
2023-04-07T01:44:10.798Z,7.76
2023-04-07T01:46:38.845Z,7.86
2023-04-07T01:49:08.369Z,7.72
2023-04-07T01:51:36.724Z,7.90
2023-04-07T01:54:05.213Z,7.77
2023-04-07T01:56:33.324Z,7.61
2023-04-07T01:59:05.371Z,7.96
2023-04-07T02:01:33.524Z,8.08
2023-04-07T02:04:07.663Z,8.00
2023-04-07T02:06:40.234Z,8.25
2023-04-07T02:09:11.300Z,8.21
2023-04-07T02:11:41.245Z,8.25
2023-04-07T02:14:10.454Z,8.20
2023-04-07T02:16:56.982Z,8.13
2023-04-07T02:19:25.170Z,8.24
2023-04-07T02:21:54.999Z,8.40
2023-04-07T02:24:23.033Z,8.14
2023-04-07T02:26:51.114Z,8.04
2023-04-07T02:29:19.284Z,7.92
2023-04-07T02:31:47.417Z,8.27
2023-04-07T02:34:15.473Z,8.24
2023-04-07T02:36:43.583Z,8.50
2023-04-07T02:39:13.497Z,8.55
2023-04-07T02:41:42.641Z,8.50
2023-04-07T02:44:10.954Z,8.52
2023-04-07T02:46:38.923Z,8.22
2023-04-07T02:49:06.972Z,7.95
2023-04-07T02:51:34.940Z,7.81
2023-04-07T02:54:02.945Z,7.75
2023-04-07T02:56:32.681Z,8.02
2023-04-07T02:59:01.113Z,8.40
2023-04-07T03:01:29.875Z,8.12
2023-04-07T03:03:58.109Z,8.34
2023-04-07T03:06:27.746Z,7.91
2023-04-07T03:09:03.637Z,7.95
2023-04-07T03:11:36.206Z,7.89
2023-04-07T03:14:04.752Z,8.01
2023-04-07T03:16:34.375Z,7.94
2023-04-07T03:19:07.684Z,8.10
2023-04-07T03:21:39.343Z,8.04
2023-04-07T03:24:08.024Z,8.47
2023-04-07T03:26:39.727Z,8.09
2023-04-07T03:29:16.035Z,8.44
2023-04-07T03:31:44.873Z,8.03
2023-04-07T03:34:15.527Z,8.05
2023-04-07T03:36:43.676Z,8.13
2023-04-07T03:39:11.754Z,8.46
2023-04-07T03:41:41.291Z,8.47
2023-04-07T03:44:09.394Z,7.92
2023-04-07T03:46:39.149Z,8.20
2023-04-07T03:49:10.131Z,7.90
2023-04-07T03:51:38.104Z,7.99
2023-04-07T03:54:12.663Z,7.99
2023-04-07T03:56:44.936Z,8.19
2023-04-07T03:59:14.639Z,7.92
2023-04-07T04:01:53.370Z,8.08
2023-04-07T04:04:21.617Z,8.61
2023-04-07T04:06:50.417Z,8.21
2023-04-07T04:09:35.780Z,8.55
2023-04-07T04:12:05.631Z,8.49
2023-04-07T04:14:37.196Z,8.31
2023-04-07T04:17:06.984Z,8.36
2023-04-07T04:19:42.961Z,8.05
2023-04-07T04:22:18.725Z,8.25
2023-04-07T04:24:53.625Z,8.14
2023-04-07T04:27:25.509Z,7.77
2023-04-07T04:30:00.159Z,8.16
2023-04-07T04:32:37.031Z,8.11
2023-04-07T04:35:07.245Z,7.79
2023-04-07T04:37:41.679Z,7.49
2023-04-07T04:40:12.706Z,7.52
2023-04-07T04:42:42.945Z,7.34
2023-04-07T04:45:12.722Z,7.51
2023-04-07T04:47:45.726Z,7.38
2023-04-07T04:50:14.098Z,7.24
2023-04-07T04:52:43.777Z,7.39
2023-04-07T04:55:19.358Z,7.40
2023-04-07T04:57:49.433Z,7.33
2023-04-07T05:00:23.710Z,7.45
2023-04-07T05:02:58.134Z,7.58
2023-04-07T05:05:27.463Z,7.54
2023-04-07T05:07:56.777Z,7.58
2023-04-07T05:10:30.377Z,7.67
2023-04-07T05:12:59.846Z,7.71
2023-04-07T05:15:27.851Z,8.12
2023-04-07T05:17:56.295Z,8.11
2023-04-07T05:20:28.037Z,8.14
2023-04-07T05:22:56.519Z,7.96
2023-04-07T05:25:31.182Z,8.32
2023-04-07T05:28:04.629Z,8.20
2023-04-07T05:30:35.464Z,8.04
2023-04-07T05:33:03.689Z,8.43
2023-04-07T05:35:40.781Z,8.29
2023-04-07T05:38:11.594Z,8.20
2023-04-07T05:40:40.705Z,8.33
2023-04-07T05:43:13.870Z,8.11
2023-04-07T05:45:41.964Z,8.42
2023-04-07T05:48:09.979Z,8.01
2023-04-07T05:50:45.541Z,7.71
2023-04-07T05:53:17.413Z,7.37
2023-04-07T05:55:45.559Z,7.51
2023-04-07T05:58:23.139Z,7.26
2023-04-07T06:00:55.069Z,7.44
2023-04-07T06:03:23.576Z,7.73
2023-04-07T06:06:10.283Z,7.69
2023-04-07T06:08:40.654Z,7.92
2023-04-07T06:11:08.666Z,7.96
2023-04-07T06:13:38.097Z,7.79
2023-04-07T06:16:06.436Z,7.35
2023-04-07T06:18:34.789Z,7.61
2023-04-07T06:21:03.118Z,8.28
2023-04-07T06:23:31.231Z,7.52
2023-04-07T06:25:59.351Z,8.27
2023-04-07T06:28:27.447Z,9.37
2023-04-07T06:30:58.422Z,8.66
2023-04-07T06:33:28.554Z,8.03
2023-04-07T06:35:58.397Z,7.93
2023-04-07T06:38:26.495Z,8.43
2023-04-07T06:40:54.590Z,8.12
2023-04-07T06:43:22.608Z,7.97
2023-04-07T06:46:04.868Z,7.92
2023-04-07T06:48:32.973Z,8.48
2023-04-07T06:51:00.973Z,8.59
2023-04-07T06:53:28.938Z,8.49
2023-04-07T06:56:04.150Z,8.43
2023-04-07T06:58:32.372Z,8.28
2023-04-07T07:01:03.183Z,8.53
2023-04-07T07:03:32.711Z,8.59
2023-04-07T07:06:01.175Z,8.94
2023-04-07T07:08:30.651Z,9.10
2023-04-07T07:10:58.688Z,10.47
2023-04-07T07:13:27.332Z,10.86
2023-04-07T07:15:56.107Z,10.73
2023-04-07T07:18:24.511Z,10.96
2023-04-07T07:20:53.957Z,11.38
2023-04-07T07:23:21.950Z,11.56
2023-04-07T07:25:49.932Z,10.29
2023-04-07T07:28:18.422Z,11.16
2023-04-07T07:30:46.514Z,10.77
2023-04-07T07:33:14.949Z,10.32
2023-04-07T07:35:45.310Z,10.73
2023-04-07T07:38:14.716Z,10.46
2023-04-07T07:40:42.710Z,10.31
2023-04-07T07:43:10.795Z,10.58
2023-04-07T07:45:38.803Z,10.31
2023-04-07T07:48:06.955Z,10.67
2023-04-07T07:50:34.947Z,10.94
2023-04-07T07:53:03.185Z,11.03
2023-04-07T07:55:32.653Z,11.20
2023-04-07T07:58:00.913Z,10.71
2023-04-07T08:00:29.337Z,11.27
2023-04-07T08:02:57.413Z,11.35
2023-04-07T08:05:25.646Z,10.79
2023-04-07T08:07:55.365Z,11.31
2023-04-07T08:10:25.194Z,11.32
2023-04-07T08:12:54.637Z,11.11
2023-04-07T08:15:22.734Z,11.23
2023-04-07T08:17:50.847Z,11.17
2023-04-07T08:20:19.397Z,11.35
2023-04-07T08:22:47.412Z,11.26
2023-04-07T08:25:15.654Z,11.80
2023-04-07T08:27:45.902Z,11.53
2023-04-07T08:30:15.407Z,12.01
2023-04-07T08:32:44.198Z,11.41
2023-04-07T08:35:12.732Z,11.14
2023-04-07T08:37:41.350Z,11.36
2023-04-07T08:40:09.861Z,11.78
2023-04-07T08:42:41.685Z,12.04
2023-04-07T08:45:10.160Z,12.18
2023-04-07T08:47:41.519Z,12.29
2023-04-07T08:50:10.323Z,12.30
2023-04-07T08:52:42.666Z,12.94
2023-04-07T08:55:10.755Z,12.35
2023-04-07T08:57:39.070Z,11.80
2023-04-07T09:00:07.718Z,12.97
2023-04-07T09:02:37.040Z,13.15
2023-04-07T09:05:07.552Z,12.07
2023-04-07T09:07:36.406Z,13.46
2023-04-07T09:10:04.891Z,13.09
2023-04-07T09:12:33.198Z,14.03
2023-04-07T09:15:01.271Z,13.11
2023-04-07T09:17:29.901Z,13.70
2023-04-07T09:20:00.889Z,13.99
2023-04-07T09:22:40.523Z,13.34
2023-04-07T09:25:13.040Z,13.24
2023-04-07T09:27:41.151Z,12.92
2023-04-07T09:30:12.844Z,12.76
2023-04-07T09:32:41.319Z,12.99
2023-04-07T09:35:10.129Z,13.18
2023-04-07T09:37:38.411Z,14.21
2023-04-07T09:40:08.978Z,14.34
2023-04-07T09:42:39.594Z,13.42
2023-04-07T09:45:08.184Z,13.78
2023-04-07T09:47:36.282Z,12.82
2023-04-07T09:50:07.022Z,14.04
2023-04-07T09:52:51.828Z,14.27
2023-04-07T09:55:22.866Z,14.52
2023-04-07T09:57:51.440Z,13.38
2023-04-07T10:00:19.846Z,14.48
2023-04-07T10:02:48.279Z,14.54
2023-04-07T10:05:16.338Z,14.32
2023-04-07T10:07:44.593Z,14.89
2023-04-07T10:10:13.043Z,14.19
2023-04-07T10:12:42.841Z,13.39
2023-04-07T10:15:13.496Z,13.71
2023-04-07T10:17:42.458Z,13.08
2023-04-07T10:20:11.057Z,13.35
2023-04-07T10:22:39.666Z,12.94
2023-04-07T10:25:11.133Z,13.13
2023-04-07T10:27:42.783Z,12.72
2023-04-07T10:30:15.228Z,12.94
2023-04-07T10:32:47.633Z,12.44
2023-04-07T10:35:15.873Z,13.02
2023-04-07T10:38:07.089Z,13.18
2023-04-07T10:40:35.893Z,13.26
2023-04-07T10:43:04.676Z,12.36
2023-04-07T10:45:51.888Z,12.18
2023-04-07T10:48:21.897Z,11.97
2023-04-07T10:51:05.202Z,11.59
2023-04-07T10:53:36.137Z,11.70
2023-04-07T10:56:04.463Z,11.18
2023-04-07T10:58:32.749Z,11.16
2023-04-07T11:01:21.935Z,11.42
2023-04-07T11:04:01.292Z,11.51
2023-04-07T11:06:29.621Z,11.22
2023-04-07T11:08:57.642Z,11.26
2023-04-07T11:11:42.434Z,11.58
2023-04-07T11:14:10.834Z,11.72
2023-04-07T11:16:40.906Z,11.74
2023-04-07T11:19:10.588Z,12.08
2023-04-07T11:21:41.156Z,11.78
2023-04-07T11:24:11.659Z,12.39
2023-04-07T11:26:40.920Z,14.39
2023-04-07T11:29:09.242Z,12.29
2023-04-07T11:31:37.847Z,12.89
2023-04-07T11:34:06.171Z,13.87
2023-04-07T11:36:36.271Z,13.57
2023-04-07T11:39:04.592Z,13.41
2023-04-07T11:41:33.692Z,13.31
2023-04-07T11:44:05.511Z,13.63
2023-04-07T11:46:33.588Z,12.90
2023-04-07T11:49:11.922Z,12.32
2023-04-07T11:51:41.884Z,12.02
2023-04-07T11:54:10.147Z,11.92
2023-04-07T11:56:45.624Z,12.01
2023-04-07T11:59:22.731Z,12.09
2023-04-07T12:01:51.401Z,11.82
2023-04-07T12:04:20.162Z,11.89
2023-04-07T12:06:49.944Z,11.70
2023-04-07T12:09:32.246Z,11.76
2023-04-07T12:12:00.624Z,11.89
2023-04-07T12:14:28.777Z,11.96
2023-04-07T12:16:58.237Z,11.94
2023-04-07T12:19:27.149Z,11.94
2023-04-07T12:21:56.943Z,12.22
2023-04-07T12:24:25.074Z,12.59
2023-04-07T12:26:53.462Z,12.23
2023-04-07T12:29:21.503Z,12.51
2023-04-07T12:31:51.117Z,12.22
2023-04-07T12:34:19.733Z,11.73
2023-04-07T12:36:48.202Z,12.32
2023-04-07T12:39:17.652Z,12.50
2023-04-07T12:41:48.617Z,13.02
2023-04-07T12:44:18.906Z,12.79
2023-04-07T12:46:46.951Z,12.57
2023-04-07T12:49:15.082Z,12.92
2023-04-07T12:51:43.103Z,12.76
2023-04-07T12:54:11.504Z,13.18
2023-04-07T12:56:42.174Z,13.04
2023-04-07T12:59:10.244Z,12.45
2023-04-07T13:01:38.431Z,12.69
2023-04-07T13:04:06.771Z,12.55
2023-04-07T13:06:34.963Z,12.40
2023-04-07T13:09:03.013Z,13.62
2023-04-07T13:11:31.055Z,12.90
2023-04-07T13:14:01.554Z,13.41
2023-04-07T13:16:29.720Z,13.21
2023-04-07T13:19:01.160Z,13.45
2023-04-07T13:21:45.448Z,12.93
2023-04-07T13:24:14.613Z,13.31
2023-04-07T13:26:42.775Z,13.94
2023-04-07T13:29:12.299Z,13.48
2023-04-07T13:31:40.432Z,13.79
2023-04-07T13:34:08.649Z,12.83
2023-04-07T13:36:38.983Z,13.38
2023-04-07T13:39:07.029Z,13.79
2023-04-07T13:41:35.333Z,14.14
2023-04-07T13:44:03.695Z,13.57
2023-04-07T13:46:33.120Z,13.63
2023-04-07T13:49:01.240Z,13.73
2023-04-07T13:51:29.370Z,13.94
2023-04-07T13:53:57.402Z,13.81
2023-04-07T13:56:25.403Z,13.95
2023-04-07T13:58:54.032Z,13.77
2023-04-07T14:01:22.197Z,14.08
2023-04-07T14:03:52.907Z,13.72
2023-04-07T14:06:22.800Z,14.08
2023-04-07T14:08:51.086Z,13.45
2023-04-07T14:11:19.235Z,13.93
2023-04-07T14:13:48.198Z,14.78
2023-04-07T14:16:19.023Z,13.59
2023-04-07T14:18:47.328Z,14.12
2023-04-07T14:21:16.737Z,13.64
2023-04-07T14:23:44.740Z,14.70
2023-04-07T14:26:13.109Z,15.27
2023-04-07T14:28:41.510Z,16.28
2023-04-07T14:31:15.728Z,15.69
2023-04-07T14:33:43.909Z,15.65
2023-04-07T14:36:12.114Z,14.94
2023-04-07T14:38:41.739Z,14.68
2023-04-07T14:41:10.741Z,14.78
2023-04-07T14:43:39.438Z,13.70
2023-04-07T14:46:09.998Z,13.44
2023-04-07T14:48:38.030Z,13.56
2023-04-07T14:51:11.782Z,13.64
2023-04-07T14:53:42.030Z,13.49
2023-04-07T14:56:10.141Z,14.43
2023-04-07T14:58:39.081Z,13.34
2023-04-07T15:01:07.416Z,13.71
2023-04-07T15:03:38.044Z,14.34
2023-04-07T15:06:09.897Z,13.46
2023-04-07T15:08:38.087Z,13.75
2023-04-07T15:11:08.177Z,14.63
2023-04-07T15:13:36.477Z,14.70
2023-04-07T15:16:08.686Z,14.78
2023-04-07T15:18:36.924Z,13.68
2023-04-07T15:21:05.073Z,15.18
2023-04-07T15:23:33.243Z,15.32
2023-04-07T15:26:03.563Z,14.50
2023-04-07T15:28:33.107Z,13.31
2023-04-07T15:31:01.537Z,13.12
2023-04-07T15:33:29.579Z,13.16
2023-04-07T15:35:57.931Z,13.55
2023-04-07T15:38:26.027Z,13.07
2023-04-07T15:40:54.016Z,13.20
2023-04-07T15:43:22.169Z,13.59
2023-04-07T15:45:51.532Z,13.74
2023-04-07T15:48:21.846Z,14.53
2023-04-07T15:50:49.870Z,14.16
2023-04-07T15:53:24.044Z,14.31
2023-04-07T15:55:52.374Z,14.20
2023-04-07T15:58:20.419Z,14.50
2023-04-07T16:00:48.539Z,14.15
2023-04-07T16:03:18.039Z,14.07
2023-04-07T16:05:46.188Z,14.37
2023-04-07T16:08:14.283Z,14.18
2023-04-07T16:10:42.925Z,14.24
2023-04-07T16:13:11.383Z,13.64
2023-04-07T16:15:41.119Z,13.74
2023-04-07T16:18:11.025Z,12.70
2023-04-07T16:20:40.547Z,13.63
2023-04-07T16:23:10.026Z,13.41
2023-04-07T16:25:38.076Z,13.11
2023-04-07T16:28:06.212Z,12.34
2023-04-07T16:30:36.285Z,12.80
2023-04-07T16:33:04.751Z,12.73
2023-04-07T16:35:32.765Z,12.56
2023-04-07T16:38:04.522Z,12.48
2023-04-07T16:40:33.004Z,12.89
2023-04-07T16:43:01.150Z,12.07
2023-04-07T16:45:29.247Z,12.34
2023-04-07T16:47:57.341Z,11.93
2023-04-07T16:50:25.433Z,12.45
2023-04-07T16:52:54.727Z,12.12
2023-04-07T16:55:24.497Z,12.55
2023-04-07T16:57:55.591Z,12.25
2023-04-07T17:00:23.708Z,12.17
2023-04-07T17:02:51.874Z,12.02
2023-04-07T17:05:20.151Z,12.46
2023-04-07T17:07:48.236Z,12.39
2023-04-07T17:10:16.496Z,12.08
2023-04-07T17:12:48.298Z,12.23
2023-04-07T17:15:16.416Z,12.48
2023-04-07T17:17:46.906Z,11.70
2023-04-07T17:20:17.406Z,11.89
2023-04-07T17:22:45.620Z,11.53
2023-04-07T17:25:13.622Z,11.80
2023-04-07T17:27:41.610Z,12.02
2023-04-07T17:30:11.575Z,11.63
2023-04-07T17:32:39.671Z,11.82
2023-04-07T17:35:08.267Z,11.53
2023-04-07T17:37:36.263Z,11.34
2023-04-07T17:40:04.372Z,11.46
2023-04-07T17:42:32.887Z,11.32
2023-04-07T17:45:01.799Z,11.44
2023-04-07T17:47:31.227Z,11.34
2023-04-07T17:49:59.228Z,11.23
2023-04-07T17:52:28.912Z,11.46
2023-04-07T17:54:59.287Z,10.85
2023-04-07T17:57:27.306Z,10.70
2023-04-07T17:59:55.290Z,11.20
2023-04-07T18:02:23.417Z,10.95
2023-04-07T18:04:54.272Z,10.96
2023-04-07T18:07:22.348Z,10.71
2023-04-07T18:09:50.724Z,10.61
2023-04-07T18:12:21.578Z,10.65
2023-04-07T18:14:51.703Z,10.89
2023-04-07T18:17:19.787Z,11.08
2023-04-07T18:19:47.797Z,11.14
2023-04-07T18:22:17.903Z,10.87
2023-04-07T18:24:46.001Z,10.87
2023-04-07T18:27:14.009Z,10.88
2023-04-07T18:29:42.055Z,10.82
2023-04-07T18:32:10.055Z,11.03
2023-04-07T18:34:38.062Z,11.16
2023-04-07T18:37:06.093Z,11.00
2023-04-07T18:39:37.822Z,11.07
2023-04-07T18:42:06.477Z,10.88
2023-04-07T18:44:34.506Z,11.30
2023-04-07T18:47:04.776Z,10.92
2023-04-07T18:49:33.006Z,11.00
2023-04-07T18:52:01.091Z,11.26
2023-04-07T18:54:29.092Z,11.74
2023-04-07T18:56:58.539Z,11.17
2023-04-07T18:59:27.021Z,11.45
2023-04-07T19:01:56.657Z,10.59
2023-04-07T19:04:25.314Z,10.71
2023-04-07T19:06:53.394Z,10.73
2023-04-07T19:09:21.737Z,10.77
2023-04-07T19:11:49.831Z,10.97
2023-04-07T19:14:19.554Z,11.05
2023-04-07T19:16:47.819Z,10.96
2023-04-07T19:19:16.935Z,10.65
2023-04-07T19:21:45.157Z,10.79
2023-04-07T19:24:13.233Z,10.56
2023-04-07T19:26:42.270Z,10.62
2023-04-07T19:29:12.330Z,10.67
2023-04-07T19:31:44.554Z,10.60
2023-04-07T19:34:14.673Z,10.58
2023-04-07T19:36:44.788Z,10.29
2023-04-07T19:39:12.911Z,10.41
2023-04-07T19:41:43.293Z,10.15
2023-04-07T19:44:11.453Z,10.47
2023-04-07T19:46:39.447Z,10.28
2023-04-07T19:49:11.332Z,10.28
2023-04-07T19:51:39.398Z,10.33
2023-04-07T19:54:09.730Z,10.25
2023-04-07T19:56:38.449Z,10.39
2023-04-07T19:59:07.785Z,10.16
2023-04-07T20:01:35.962Z,10.24
2023-04-07T20:04:04.553Z,10.17
2023-04-07T20:06:39.930Z,10.07
2023-04-07T20:09:08.051Z,10.09
2023-04-07T20:11:36.113Z,10.05
2023-04-07T20:14:04.200Z,9.96
2023-04-07T20:16:35.142Z,10.16
2023-04-07T20:19:05.686Z,10.02
2023-04-07T20:21:37.503Z,10.15
2023-04-07T20:24:08.689Z,9.93
2023-04-07T20:26:36.851Z,9.77
2023-04-07T20:29:04.903Z,10.11
2023-04-07T20:31:43.951Z,9.86
2023-04-07T20:34:14.692Z,10.22
2023-04-07T20:36:44.814Z,10.31
2023-04-07T20:39:15.804Z,10.06
2023-04-07T20:41:45.182Z,9.81
2023-04-07T20:44:13.299Z,9.98
2023-04-07T20:46:41.992Z,9.73
2023-04-07T20:49:12.296Z,9.83
2023-04-07T20:51:40.357Z,9.96
2023-04-07T20:54:09.774Z,9.94
2023-04-07T20:56:42.911Z,9.97
2023-04-07T20:59:13.245Z,9.87
2023-04-07T21:01:41.691Z,10.00
2023-04-07T21:04:10.762Z,9.73
2023-04-07T21:06:39.652Z,9.87
2023-04-07T21:09:16.372Z,10.01
2023-04-07T21:11:44.408Z,9.70
2023-04-07T21:14:12.474Z,10.14
2023-04-07T21:16:40.529Z,9.76
2023-04-07T21:19:08.522Z,9.90
2023-04-07T21:21:38.819Z,10.22
2023-04-07T21:24:07.433Z,9.88
2023-04-07T21:26:36.945Z,9.66
2023-04-07T21:29:05.041Z,9.54
2023-04-07T21:31:33.590Z,9.99
2023-04-07T21:34:01.757Z,9.70
2023-04-07T21:36:31.426Z,9.94
2023-04-07T21:38:59.508Z,10.22
2023-04-07T21:41:27.506Z,10.32
2023-04-07T21:43:57.372Z,10.16
2023-04-07T21:46:26.417Z,10.34
2023-04-07T21:48:54.825Z,10.45
2023-04-07T21:51:22.875Z,10.31
2023-04-07T21:53:50.860Z,10.23
2023-04-07T21:56:21.835Z,10.12
2023-04-07T21:58:50.054Z,10.14
2023-04-07T22:02:51.364Z,9.77
2023-04-07T22:05:19.871Z,9.85
2023-04-07T22:07:48.258Z,9.99
2023-04-07T22:10:18.606Z,9.89
2023-04-07T22:12:46.934Z,9.88
2023-04-07T22:15:15.035Z,9.84
2023-04-07T22:17:43.144Z,10.10
2023-04-07T22:20:12.857Z,10.24
2023-04-07T22:22:41.221Z,10.07
2023-04-07T22:25:09.746Z,9.88
2023-04-07T22:27:42.674Z,10.12
2023-04-07T22:30:11.057Z,9.60
2023-04-07T22:32:39.247Z,9.90
2023-04-07T22:35:07.406Z,10.10
2023-04-07T22:37:36.743Z,10.15
2023-04-07T22:40:04.983Z,10.24
2023-04-07T22:42:33.058Z,9.97
2023-04-07T22:45:01.147Z,9.93
2023-04-07T22:47:29.223Z,9.57
2023-04-07T22:49:57.609Z,9.79
2023-04-07T22:52:27.871Z,9.93
2023-04-07T22:54:57.948Z,9.78
2023-04-07T22:57:26.354Z,10.04
2023-04-07T22:59:55.680Z,9.65
2023-04-07T23:02:23.894Z,9.93
2023-04-07T23:04:52.037Z,9.75
2023-04-07T23:07:20.039Z,9.64
2023-04-07T23:09:48.060Z,9.61
2023-04-07T23:12:17.410Z,9.66
2023-04-07T23:14:45.608Z,9.77
2023-04-07T23:17:13.617Z,9.85
2023-04-07T23:19:43.668Z,9.74
2023-04-07T23:22:12.354Z,9.76
2023-04-07T23:24:40.364Z,9.83
2023-04-07T23:27:10.702Z,9.78
2023-04-07T23:29:42.618Z,9.64
2023-04-07T23:32:11.133Z,9.79
2023-04-07T23:34:39.359Z,9.56
2023-04-07T23:37:07.346Z,9.78
2023-04-07T23:39:35.621Z,9.40
2023-04-07T23:42:03.665Z,9.43
2023-04-07T23:44:31.727Z,9.18
2023-04-07T23:47:01.371Z,9.52
2023-04-07T23:49:29.391Z,9.57
2023-04-07T23:51:59.592Z,9.37
2023-04-07T23:54:27.626Z,9.59
2023-04-07T23:56:55.677Z,9.65
2023-04-07T23:59:23.720Z,9.67
